createdAt,value
2019-03-19T00:00:07.784Z,0.00
2019-03-19T00:01:07.780Z,0.00
2019-03-19T00:02:07.798Z,0.00
2019-03-19T00:03:07.756Z,0.00
2019-03-19T00:04:07.744Z,0.00
2019-03-19T00:05:07.740Z,0.00
2019-03-19T00:06:07.726Z,0.00
2019-03-19T00:07:07.732Z,0.00
2019-03-19T00:08:07.706Z,0.00
2019-03-19T00:09:07.751Z,0.00
2019-03-19T00:10:07.688Z,0.00
2019-03-19T00:11:07.666Z,0.00
2019-03-19T00:12:07.681Z,0.00
2019-03-19T00:13:07.656Z,0.00
2019-03-19T00:14:07.692Z,0.00
2019-03-19T00:15:07.628Z,0.00
2019-03-19T00:16:07.612Z,0.00
2019-03-19T00:17:07.738Z,0.00
2019-03-19T00:18:07.601Z,0.00
2019-03-19T00:19:07.588Z,0.00
2019-03-19T00:20:07.583Z,0.00
2019-03-19T00:21:07.567Z,0.00
2019-03-19T00:22:07.567Z,0.00
2019-03-19T00:23:07.544Z,0.00
2019-03-19T00:24:07.545Z,0.00
2019-03-19T00:25:07.530Z,0.00
2019-03-19T00:26:07.522Z,0.00
2019-03-19T00:27:07.533Z,0.00
2019-03-19T00:28:07.491Z,0.00
2019-03-19T00:29:07.484Z,0.00
2019-03-19T00:30:07.476Z,0.00
2019-03-19T00:31:07.461Z,0.00
2019-03-19T00:32:07.459Z,0.00
2019-03-19T00:33:07.437Z,0.00
2019-03-19T00:34:07.421Z,0.00
2019-03-19T00:35:07.412Z,0.00
2019-03-19T00:36:07.451Z,0.00
2019-03-19T00:37:07.411Z,0.00
2019-03-19T00:38:07.379Z,0.00
2019-03-19T00:39:07.382Z,0.00
2019-03-19T00:40:07.365Z,0.00
2019-03-19T00:41:07.352Z,0.00
2019-03-19T00:42:07.372Z,0.00
2019-03-19T00:43:07.339Z,0.00
2019-03-19T00:44:07.323Z,0.00
2019-03-19T00:45:07.310Z,0.00
2019-03-19T00:46:07.301Z,0.00
2019-03-19T00:47:07.327Z,0.00
2019-03-19T00:48:07.275Z,0.00
2019-03-19T00:49:07.277Z,0.00
2019-03-19T00:50:07.262Z,0.00
2019-03-19T00:51:07.239Z,0.00
2019-03-19T00:52:07.232Z,0.00
2019-03-19T00:53:07.241Z,0.00
2019-03-19T00:54:07.220Z,0.00
2019-03-19T00:55:07.230Z,0.00
2019-03-19T00:56:07.196Z,0.00
2019-03-19T00:57:07.182Z,0.00
2019-03-19T00:58:07.184Z,0.00
2019-03-19T00:59:07.219Z,0.00
2019-03-19T01:00:07.153Z,0.00
2019-03-19T01:01:07.149Z,0.00
2019-03-19T01:02:07.124Z,0.00
2019-03-19T01:03:07.135Z,0.00
2019-03-19T01:04:07.109Z,0.00
2019-03-19T01:05:07.157Z,0.00
2019-03-19T01:06:07.097Z,0.00
2019-03-19T01:07:07.073Z,0.00
2019-03-19T01:08:07.089Z,0.00
2019-03-19T01:09:07.055Z,0.00
2019-03-19T01:10:07.078Z,0.00
2019-03-19T01:11:07.037Z,0.00
2019-03-19T01:12:07.026Z,0.00
2019-03-19T01:13:07.040Z,0.00
2019-03-19T01:14:06.996Z,0.00
2019-03-19T01:15:06.990Z,0.00
2019-03-19T01:16:07.028Z,0.00
2019-03-19T01:17:06.964Z,0.00
2019-03-19T01:18:06.966Z,0.00
2019-03-19T01:19:06.949Z,0.00
2019-03-19T01:20:06.932Z,0.00
2019-03-19T01:21:06.939Z,0.00
2019-03-19T01:22:06.913Z,0.00
2019-03-19T01:23:06.925Z,0.00
2019-03-19T01:24:06.902Z,0.00
2019-03-19T01:25:06.932Z,0.00
2019-03-19T01:26:06.872Z,0.00
2019-03-19T01:27:06.861Z,0.00
2019-03-19T01:28:06.869Z,0.00
2019-03-19T01:29:06.839Z,0.00
2019-03-19T01:30:06.836Z,0.00
2019-03-19T01:31:06.825Z,0.00
2019-03-19T01:32:06.806Z,0.00
2019-03-19T01:33:06.815Z,0.00
2019-03-19T01:34:06.787Z,0.00
2019-03-19T01:35:06.820Z,0.00
2019-03-19T01:36:06.766Z,0.00
2019-03-19T01:37:06.760Z,0.00
2019-03-19T01:38:06.767Z,0.00
2019-03-19T01:39:06.736Z,0.00
2019-03-19T01:40:06.725Z,0.00
2019-03-19T01:41:06.718Z,0.00
2019-03-19T01:42:06.711Z,0.00
2019-03-19T01:43:06.711Z,0.00
2019-03-19T01:44:06.685Z,0.00
2019-03-19T01:45:06.665Z,0.00
2019-03-19T01:46:06.669Z,0.00
2019-03-19T01:47:06.697Z,0.00
2019-03-19T01:48:06.658Z,0.00
2019-03-19T01:49:06.629Z,0.00
2019-03-19T01:50:06.629Z,0.00
2019-03-19T01:51:06.601Z,0.00
2019-03-19T01:52:06.597Z,0.00
2019-03-19T01:53:06.610Z,0.00
2019-03-19T01:54:06.577Z,0.00
2019-03-19T01:55:06.666Z,0.00
2019-03-19T01:56:06.551Z,0.00
2019-03-19T01:57:06.541Z,0.00
2019-03-19T01:58:06.597Z,0.00
2019-03-19T01:59:06.533Z,0.00
2019-03-19T02:00:06.505Z,0.00
2019-03-19T02:01:06.503Z,0.00
2019-03-19T02:02:06.490Z,0.00
2019-03-19T02:03:06.489Z,0.00
2019-03-19T02:04:06.481Z,0.00
2019-03-19T02:05:06.453Z,0.00
2019-03-19T02:06:06.441Z,0.00
2019-03-19T02:07:06.438Z,0.00
2019-03-19T02:08:06.437Z,0.00
2019-03-19T02:09:06.413Z,0.00
2019-03-19T02:10:06.405Z,0.00
2019-03-19T02:11:06.395Z,0.00
2019-03-19T02:12:06.400Z,0.00
2019-03-19T02:13:06.453Z,0.00
2019-03-19T02:14:06.364Z,0.00
2019-03-19T02:15:06.351Z,0.00
2019-03-19T02:16:06.355Z,0.00
2019-03-19T02:17:06.332Z,0.00
2019-03-19T02:18:06.347Z,0.00
2019-03-19T02:19:06.307Z,0.00
2019-03-19T02:20:06.306Z,0.00
2019-03-19T02:21:06.321Z,0.00
2019-03-19T02:22:06.288Z,0.00
2019-03-19T02:23:06.284Z,0.00
2019-03-19T02:24:06.259Z,0.00
2019-03-19T02:25:06.255Z,0.00
2019-03-19T02:26:16.074Z,0.00
2019-03-19T02:27:07.219Z,0.00
2019-03-19T02:28:06.223Z,0.00
2019-03-19T02:29:06.241Z,0.00
2019-03-19T02:30:06.235Z,0.00
2019-03-19T02:31:06.182Z,0.00
2019-03-19T02:32:06.173Z,0.00
2019-03-19T02:33:06.331Z,0.00
2019-03-19T02:34:06.158Z,0.00
2019-03-19T02:35:06.136Z,0.00
2019-03-19T02:36:06.142Z,0.00
2019-03-19T02:37:06.180Z,0.00
2019-03-19T02:38:06.133Z,0.00
2019-03-19T02:39:06.131Z,0.00
2019-03-19T02:40:06.091Z,0.00
2019-03-19T02:41:06.133Z,0.00
2019-03-19T02:42:06.079Z,0.00
2019-03-19T02:43:06.080Z,0.00
2019-03-19T02:44:06.039Z,0.00
2019-03-19T02:45:06.042Z,0.00
2019-03-19T02:46:06.049Z,0.00
2019-03-19T02:47:06.027Z,0.00
2019-03-19T02:48:06.041Z,0.00
2019-03-19T02:49:06.127Z,0.00
2019-03-19T02:50:05.977Z,0.00
2019-03-19T02:51:06.035Z,0.00
2019-03-19T02:52:05.963Z,0.00
2019-03-19T02:53:05.968Z,0.00
2019-03-19T02:54:05.949Z,0.00
2019-03-19T02:55:05.948Z,0.00
2019-03-19T02:56:05.921Z,0.00
2019-03-19T02:57:05.944Z,0.00
2019-03-19T02:58:05.913Z,0.00
2019-03-19T02:59:05.898Z,0.00
2019-03-19T03:00:05.887Z,0.00
2019-03-19T03:01:05.868Z,0.00
2019-03-19T03:02:05.855Z,0.00
2019-03-19T03:03:05.862Z,0.00
2019-03-19T03:04:05.887Z,0.00
2019-03-19T03:05:05.824Z,0.00
2019-03-19T03:06:05.817Z,0.00
2019-03-19T03:07:05.796Z,0.00
2019-03-19T03:08:05.814Z,0.00
2019-03-19T03:09:05.777Z,0.00
2019-03-19T03:10:05.865Z,0.00
2019-03-19T03:11:05.756Z,0.00
2019-03-19T03:12:05.788Z,0.00
2019-03-19T03:13:05.759Z,0.00
2019-03-19T03:14:05.727Z,0.00
2019-03-19T03:15:05.734Z,0.00
2019-03-19T03:16:05.709Z,0.00
2019-03-19T03:17:05.693Z,0.00
2019-03-19T03:18:05.703Z,0.00
2019-03-19T03:19:05.674Z,0.00
2019-03-19T03:20:05.716Z,0.00
2019-03-19T03:21:05.660Z,0.00
2019-03-19T03:22:05.645Z,0.00
2019-03-19T03:23:05.646Z,0.00
2019-03-19T03:24:05.621Z,0.00
2019-03-19T03:25:05.617Z,0.00
2019-03-19T03:26:05.599Z,0.00
2019-03-19T03:27:05.651Z,0.00
2019-03-19T03:28:05.643Z,0.00
2019-03-19T03:29:05.588Z,0.00
2019-03-19T03:30:05.561Z,0.00
2019-03-19T03:31:05.550Z,0.00
2019-03-19T03:32:05.600Z,0.00
2019-03-19T03:33:05.561Z,0.00
2019-03-19T03:34:05.526Z,0.00
2019-03-19T03:35:05.506Z,0.00
2019-03-19T03:36:05.510Z,0.00
2019-03-19T03:37:05.501Z,0.00
2019-03-19T03:38:05.502Z,0.00
2019-03-19T03:39:05.463Z,0.00
2019-03-19T03:40:05.455Z,0.00
2019-03-19T03:41:05.448Z,0.00
2019-03-19T03:42:05.432Z,0.00
2019-03-19T03:43:05.439Z,0.00
2019-03-19T03:44:05.420Z,0.00
2019-03-19T03:45:05.401Z,0.00
2019-03-19T03:46:05.384Z,0.00
2019-03-19T03:47:05.374Z,0.00
2019-03-19T03:48:05.405Z,0.00
2019-03-19T03:49:05.381Z,0.00
2019-03-19T03:50:05.341Z,0.00
2019-03-19T03:51:05.333Z,0.00
2019-03-19T03:52:05.322Z,0.00
2019-03-19T03:53:05.313Z,0.00
2019-03-19T03:54:05.313Z,0.00
2019-03-19T03:55:05.286Z,0.00
2019-03-19T03:56:05.276Z,0.00
2019-03-19T03:57:05.305Z,0.00
2019-03-19T03:58:05.263Z,0.00
2019-03-19T03:59:05.271Z,0.00
2019-03-19T04:00:05.248Z,0.00
2019-03-19T04:01:05.247Z,0.00
2019-03-19T04:02:05.225Z,0.00
2019-03-19T04:03:05.219Z,0.00
2019-03-19T04:04:05.218Z,0.00
2019-03-19T04:05:05.192Z,0.00
2019-03-19T04:06:05.168Z,0.00
2019-03-19T04:07:05.163Z,0.00
2019-03-19T04:08:05.208Z,0.00
2019-03-19T04:09:05.161Z,0.00
2019-03-19T04:10:05.139Z,0.00
2019-03-19T04:11:05.121Z,0.00
2019-03-19T04:12:05.117Z,0.00
2019-03-19T04:13:05.140Z,0.00
2019-03-19T04:14:05.111Z,0.00
2019-03-19T04:15:05.249Z,0.00
2019-03-19T04:16:05.067Z,0.00
2019-03-19T04:17:05.059Z,0.00
2019-03-19T04:18:05.055Z,0.00
2019-03-19T04:19:05.128Z,0.00
2019-03-19T04:20:05.029Z,0.00
2019-03-19T04:21:05.021Z,0.00
2019-03-19T04:22:05.005Z,0.00
2019-03-19T04:23:04.989Z,0.00
2019-03-19T04:24:05.035Z,0.00
2019-03-19T04:25:04.984Z,0.00
2019-03-19T04:26:04.975Z,0.00
2019-03-19T04:27:15.376Z,0.00
2019-03-19T04:28:05.952Z,0.00
2019-03-19T04:29:04.956Z,0.00
2019-03-19T04:30:04.925Z,0.00
2019-03-19T04:31:04.907Z,0.00
2019-03-19T04:32:04.963Z,0.00
2019-03-19T04:33:04.884Z,0.00
2019-03-19T04:34:04.893Z,0.00
2019-03-19T04:35:04.859Z,0.00
2019-03-19T04:36:04.860Z,0.00
2019-03-19T04:37:04.851Z,0.00
2019-03-19T04:38:04.842Z,0.00
2019-03-19T04:39:04.841Z,0.00
2019-03-19T04:40:04.805Z,4.00
2019-03-19T04:41:04.796Z,4.00
2019-03-19T04:42:04.791Z,0.00
2019-03-19T04:43:04.831Z,4.00
2019-03-19T04:44:04.796Z,0.00
2019-03-19T04:45:04.770Z,4.00
2019-03-19T04:46:04.751Z,4.00
2019-03-19T04:47:04.763Z,4.00
2019-03-19T04:48:04.735Z,8.00
2019-03-19T04:49:04.747Z,8.00
2019-03-19T04:50:04.743Z,8.00
2019-03-19T04:51:04.691Z,8.00
2019-03-19T04:52:04.686Z,12.00
2019-03-19T04:53:04.681Z,16.00
2019-03-19T04:54:04.682Z,16.00
2019-03-19T04:55:04.705Z,20.00
2019-03-19T04:56:04.648Z,24.00
2019-03-19T04:57:04.629Z,28.00
2019-03-19T04:58:04.626Z,36.00
2019-03-19T04:59:04.632Z,44.00
2019-03-19T05:00:04.602Z,48.00
2019-03-19T05:01:04.587Z,60.00
2019-03-19T05:02:04.586Z,68.00
2019-03-19T05:03:04.573Z,80.00
2019-03-19T05:04:04.573Z,96.00
2019-03-19T05:05:04.544Z,108.00
2019-03-19T05:06:04.541Z,116.00
2019-03-19T05:07:04.522Z,128.00
2019-03-19T05:08:04.533Z,152.00
2019-03-19T05:09:04.517Z,172.00
2019-03-19T05:10:04.491Z,196.00
2019-03-19T05:11:04.481Z,212.00
2019-03-19T05:12:04.467Z,240.00
2019-03-19T05:13:04.459Z,260.00
2019-03-19T05:14:04.465Z,280.00
2019-03-19T05:15:04.500Z,312.00
2019-03-19T05:16:04.435Z,340.00
2019-03-19T05:17:04.425Z,356.00
2019-03-19T05:18:04.418Z,368.00
2019-03-19T05:19:04.421Z,396.00
2019-03-19T05:20:04.381Z,412.00
2019-03-19T05:21:04.376Z,428.00
2019-03-19T05:22:04.362Z,456.00
2019-03-19T05:23:04.353Z,480.00
2019-03-19T05:24:04.358Z,516.00
2019-03-19T05:25:04.397Z,540.00
2019-03-19T05:26:04.334Z,552.00
2019-03-19T05:27:04.313Z,560.00
2019-03-19T05:28:04.298Z,592.00
2019-03-19T05:29:04.307Z,628.00
2019-03-19T05:30:04.296Z,632.00
2019-03-19T05:31:04.272Z,684.00
2019-03-19T05:32:04.263Z,660.00
2019-03-19T05:33:04.250Z,728.00
2019-03-19T05:34:04.258Z,836.00
2019-03-19T05:35:04.224Z,908.00
2019-03-19T05:36:04.218Z,920.00
2019-03-19T05:37:04.230Z,912.00
2019-03-19T05:38:04.208Z,920.00
2019-03-19T05:39:04.196Z,1032.00
2019-03-19T05:40:04.170Z,1196.00
2019-03-19T05:41:04.174Z,1216.00
2019-03-19T05:42:04.160Z,1276.00
2019-03-19T05:43:04.142Z,1336.00
2019-03-19T05:44:04.149Z,1420.00
2019-03-19T05:45:04.168Z,1448.00
2019-03-19T05:46:04.115Z,1460.00
2019-03-19T05:47:04.112Z,1440.00
2019-03-19T05:48:04.092Z,1512.00
2019-03-19T05:49:04.101Z,1624.00
2019-03-19T05:50:04.064Z,1732.00
2019-03-19T05:51:04.058Z,1856.00
2019-03-19T05:52:04.151Z,2004.00
2019-03-19T05:53:04.038Z,2164.00
2019-03-19T05:54:04.045Z,2328.00
2019-03-19T05:55:04.087Z,2404.00
2019-03-19T05:56:04.006Z,2388.00
2019-03-19T05:57:04.001Z,2432.00
2019-03-19T05:58:03.988Z,2620.00
2019-03-19T05:59:03.994Z,2940.00
2019-03-19T06:00:03.956Z,3100.00
2019-03-19T06:01:03.957Z,3388.00
2019-03-19T06:02:03.938Z,3452.00
2019-03-19T06:03:03.941Z,3600.00
2019-03-19T06:04:03.941Z,3732.00
2019-03-19T06:05:03.906Z,3904.00
2019-03-19T06:06:03.893Z,4160.00
2019-03-19T06:07:03.891Z,4332.00
2019-03-19T06:08:03.879Z,4500.00
2019-03-19T06:09:03.925Z,4664.00
2019-03-19T06:10:03.853Z,4824.00
2019-03-19T06:11:03.844Z,4912.00
2019-03-19T06:12:03.832Z,4932.00
2019-03-19T06:13:03.831Z,4852.00
2019-03-19T06:14:03.823Z,4740.00
2019-03-19T06:15:03.805Z,4672.00
2019-03-19T06:16:03.794Z,4624.00
2019-03-19T06:17:03.778Z,4564.00
2019-03-19T06:18:03.763Z,4536.00
2019-03-19T06:19:03.775Z,4604.00
2019-03-19T06:20:03.773Z,4648.00
2019-03-19T06:21:03.739Z,4712.00
2019-03-19T06:22:03.783Z,4812.00
2019-03-19T06:23:03.717Z,4956.00
2019-03-19T06:24:03.731Z,4976.00
2019-03-19T06:25:03.695Z,5096.00
2019-03-19T06:26:03.715Z,5244.00
2019-03-19T06:27:03.672Z,5516.00
2019-03-19T06:28:03.659Z,5784.00
2019-03-19T06:29:03.664Z,5972.00
2019-03-19T06:30:03.705Z,6080.00
2019-03-19T06:31:03.644Z,6240.00
2019-03-19T06:32:03.614Z,6484.00
2019-03-19T06:33:03.619Z,6752.00
2019-03-19T06:34:03.618Z,7024.00
2019-03-19T06:35:03.581Z,7328.00
2019-03-19T06:36:03.587Z,7688.00
2019-03-19T06:37:03.562Z,8116.00
2019-03-19T06:38:03.554Z,8640.00
2019-03-19T06:39:03.538Z,8504.00
2019-03-19T06:40:03.546Z,8536.00
2019-03-19T06:41:03.531Z,8660.00
2019-03-19T06:42:03.522Z,8720.00
2019-03-19T06:43:03.515Z,8932.00
2019-03-19T06:44:03.505Z,9144.00
2019-03-19T06:45:03.495Z,9060.00
2019-03-19T06:46:03.469Z,9248.00
2019-03-19T06:47:03.461Z,9260.00
2019-03-19T06:48:03.444Z,9356.00
2019-03-19T06:49:03.438Z,9532.00
2019-03-19T06:50:03.462Z,9640.00
2019-03-19T06:51:03.420Z,9940.00
2019-03-19T06:52:03.403Z,10000.00
2019-03-19T06:53:03.390Z,10008.00
2019-03-19T06:54:03.384Z,10332.00
2019-03-19T06:55:03.383Z,9736.00
2019-03-19T06:56:03.363Z,9132.00
2019-03-19T06:57:03.362Z,9116.00
2019-03-19T06:58:11.077Z,9304.00
2019-03-19T06:59:04.330Z,9452.00
2019-03-19T07:00:03.334Z,8448.00
2019-03-19T07:01:03.304Z,8844.00
2019-03-19T07:02:03.293Z,8348.00
2019-03-19T07:03:03.298Z,9776.00
2019-03-19T07:04:03.280Z,13144.00
2019-03-19T07:05:03.279Z,12168.00
2019-03-19T07:06:03.253Z,10472.00
2019-03-19T07:07:03.249Z,10168.00
2019-03-19T07:08:03.234Z,9816.00
2019-03-19T07:09:03.219Z,9944.00
2019-03-19T07:10:03.242Z,11752.00
2019-03-19T07:11:03.201Z,13348.00
2019-03-19T07:12:03.242Z,12188.00
2019-03-19T07:13:03.186Z,12260.00
2019-03-19T07:14:03.178Z,11388.00
2019-03-19T07:15:03.190Z,10584.00
2019-03-19T07:16:03.199Z,9916.00
2019-03-19T07:17:03.143Z,11472.00
2019-03-19T07:18:03.128Z,10904.00
2019-03-19T07:19:03.125Z,10804.00
2019-03-19T07:20:03.118Z,10348.00
2019-03-19T07:21:03.102Z,9804.00
2019-03-19T07:22:03.086Z,9764.00
2019-03-19T07:23:03.076Z,10176.00
2019-03-19T07:24:03.078Z,22528.00
2019-03-19T07:25:03.205Z,32896.00
2019-03-19T07:26:03.050Z,34368.00
2019-03-19T07:27:03.031Z,34016.00
2019-03-19T07:28:03.061Z,31840.00
2019-03-19T07:29:03.003Z,19424.00
2019-03-19T07:30:03.010Z,33984.00
2019-03-19T07:31:03.041Z,35040.00
2019-03-19T07:32:02.987Z,33568.00
2019-03-19T07:33:02.965Z,36576.00
2019-03-19T07:34:02.952Z,38784.00
2019-03-19T07:35:02.960Z,37440.00
2019-03-19T07:36:02.931Z,35328.00
2019-03-19T07:37:03.028Z,35520.00
2019-03-19T07:38:02.923Z,34304.00
2019-03-19T07:39:02.899Z,22304.00
2019-03-19T07:40:02.974Z,19136.00
2019-03-19T07:41:02.882Z,32576.00
2019-03-19T07:42:02.880Z,29216.00
2019-03-19T07:43:02.860Z,24064.00
2019-03-19T07:44:02.846Z,23168.00
2019-03-19T07:45:02.847Z,33568.00
2019-03-19T07:46:02.828Z,46560.00
2019-03-19T07:47:02.844Z,20928.00
2019-03-19T07:48:02.807Z,19552.00
2019-03-19T07:49:02.823Z,20832.00
2019-03-19T07:50:02.806Z,24544.00
2019-03-19T07:51:02.787Z,25600.00
2019-03-19T07:52:02.770Z,18144.00
2019-03-19T07:53:02.744Z,15464.00
2019-03-19T07:54:02.770Z,13648.00
2019-03-19T07:55:02.743Z,13240.00
2019-03-19T07:56:02.722Z,15564.00
2019-03-19T07:57:02.711Z,19712.00
2019-03-19T07:58:02.696Z,29792.00
2019-03-19T07:59:02.689Z,31520.00
2019-03-19T08:00:02.737Z,19072.00
2019-03-19T08:01:02.839Z,19040.00
2019-03-19T08:02:02.647Z,17440.00
2019-03-19T08:03:02.636Z,16512.00
2019-03-19T08:04:04.933Z,19712.00
2019-03-19T08:05:02.628Z,18464.00
2019-03-19T08:06:02.633Z,34176.00
2019-03-19T08:07:02.609Z,21024.00
2019-03-19T08:08:02.584Z,14252.00
2019-03-19T08:09:02.606Z,12136.00
2019-03-19T08:10:02.573Z,12616.00
2019-03-19T08:11:02.570Z,43040.00
2019-03-19T08:12:02.549Z,53280.00
2019-03-19T08:13:02.554Z,25888.00
2019-03-19T08:14:02.581Z,20448.00
2019-03-19T08:15:02.516Z,18400.00
2019-03-19T08:16:02.514Z,17440.00
2019-03-19T08:17:02.492Z,20352.00
2019-03-19T08:18:02.535Z,32576.00
2019-03-19T08:19:02.483Z,49984.00
2019-03-19T08:20:02.455Z,16896.00
2019-03-19T08:21:02.476Z,15880.00
2019-03-19T08:22:02.444Z,15928.00
2019-03-19T08:23:02.471Z,14284.00
2019-03-19T08:24:02.416Z,15632.00
2019-03-19T08:25:02.401Z,16448.00
2019-03-19T08:26:02.424Z,13532.00
2019-03-19T08:27:02.382Z,12612.00
2019-03-19T08:28:02.366Z,16004.00
2019-03-19T08:29:02.380Z,52640.00
2019-03-19T08:30:02.412Z,27200.00
2019-03-19T08:31:02.345Z,18496.00
2019-03-19T08:32:02.330Z,17216.00
2019-03-19T08:33:02.316Z,17664.00
2019-03-19T08:34:02.312Z,17216.00
2019-03-19T08:35:02.299Z,50144.00
2019-03-19T08:36:09.377Z,13168.00
2019-03-19T08:37:03.267Z,13548.00
2019-03-19T08:38:02.261Z,29728.00
2019-03-19T08:39:02.252Z,34272.00
2019-03-19T08:40:02.242Z,36544.00
2019-03-19T08:41:02.263Z,16704.00
2019-03-19T08:42:02.244Z,16928.00
2019-03-19T08:43:02.220Z,20096.00
2019-03-19T08:44:02.197Z,23776.00
2019-03-19T08:45:02.192Z,25376.00
2019-03-19T08:46:02.197Z,20640.00
2019-03-19T08:47:02.171Z,15596.00
2019-03-19T08:48:02.146Z,15916.00
2019-03-19T08:49:02.140Z,17920.00
2019-03-19T08:50:02.129Z,21984.00
2019-03-19T08:51:02.199Z,28384.00
2019-03-19T08:52:02.127Z,22688.00
2019-03-19T08:53:02.098Z,20512.00
2019-03-19T08:54:02.095Z,24576.00
2019-03-19T08:55:02.090Z,21184.00
2019-03-19T08:56:02.096Z,22272.00
2019-03-19T08:57:02.052Z,20256.00
2019-03-19T08:58:02.064Z,19168.00
2019-03-19T08:59:05.855Z,25152.00
2019-03-19T09:00:02.046Z,24672.00
2019-03-19T09:01:02.015Z,31840.00
2019-03-19T09:02:02.027Z,33984.00
2019-03-19T09:03:02.005Z,20064.00
2019-03-19T09:04:02.004Z,16896.00
2019-03-19T09:05:03.089Z,14756.00
2019-03-19T09:06:01.953Z,18304.00
2019-03-19T09:07:01.966Z,28000.00
2019-03-19T09:08:01.946Z,33248.00
2019-03-19T09:09:01.960Z,29760.00
2019-03-19T09:10:01.919Z,20064.00
2019-03-19T09:11:01.910Z,25056.00
2019-03-19T09:12:01.923Z,36896.00
2019-03-19T09:13:01.880Z,24896.00
2019-03-19T09:14:01.871Z,25568.00
2019-03-19T09:15:01.858Z,33344.00
2019-03-19T09:16:01.847Z,25568.00
2019-03-19T09:17:01.865Z,24416.00
2019-03-19T09:18:01.832Z,22048.00
2019-03-19T09:19:01.823Z,53504.00
2019-03-19T09:20:01.805Z,62080.00
2019-03-19T09:21:01.797Z,20672.00
2019-03-19T09:22:01.797Z,21344.00
2019-03-19T09:23:01.777Z,20000.00
2019-03-19T09:24:01.765Z,29312.00
2019-03-19T09:25:01.758Z,23424.00
2019-03-19T09:26:01.763Z,27488.00
2019-03-19T09:27:01.787Z,25024.00
2019-03-19T09:28:01.721Z,24512.00
2019-03-19T09:29:01.718Z,16576.00
2019-03-19T09:30:01.741Z,17536.00
2019-03-19T09:31:01.697Z,17760.00
2019-03-19T09:32:01.678Z,27776.00
2019-03-19T09:33:01.689Z,20608.00
2019-03-19T09:34:01.656Z,18400.00
2019-03-19T09:35:01.655Z,19776.00
2019-03-19T09:36:01.666Z,21440.00
2019-03-19T09:37:01.638Z,64576.00
2019-03-19T09:38:01.650Z,23200.00
2019-03-19T09:39:01.603Z,37056.00
2019-03-19T09:40:01.608Z,27456.00
2019-03-19T09:41:01.581Z,25408.00
2019-03-19T09:42:01.574Z,21504.00
2019-03-19T09:43:01.576Z,18208.00
2019-03-19T09:44:01.619Z,16704.00
2019-03-19T09:45:01.548Z,16032.00
2019-03-19T09:46:01.521Z,16620.00
2019-03-19T09:47:01.538Z,16896.00
2019-03-19T09:48:01.536Z,16404.00
2019-03-19T09:49:01.494Z,16520.00
2019-03-19T09:50:01.487Z,15076.00
2019-03-19T09:51:01.540Z,13424.00
2019-03-19T09:52:01.470Z,15132.00
2019-03-19T09:53:01.484Z,12548.00
2019-03-19T09:54:01.454Z,13284.00
2019-03-19T09:55:01.430Z,16620.00
2019-03-19T09:56:01.438Z,20512.00
2019-03-19T09:57:01.404Z,22496.00
2019-03-19T09:58:01.392Z,50304.00
2019-03-19T09:59:01.450Z,68000.00
2019-03-19T10:00:01.384Z,77024.00
2019-03-19T10:01:01.366Z,76128.00
2019-03-19T10:02:01.368Z,22592.00
2019-03-19T10:03:01.344Z,74944.00
2019-03-19T10:04:01.352Z,68736.00
2019-03-19T10:05:01.318Z,37984.00
2019-03-19T10:06:13.375Z,36384.00
2019-03-19T10:07:06.292Z,27360.00
2019-03-19T10:08:01.289Z,20032.00
2019-03-19T10:09:01.304Z,18880.00
2019-03-19T10:10:01.266Z,19040.00
2019-03-19T10:11:01.256Z,33760.00
2019-03-19T10:12:01.248Z,20448.00
2019-03-19T10:13:01.256Z,18144.00
2019-03-19T10:14:01.251Z,19424.00
2019-03-19T10:15:01.224Z,19296.00
2019-03-19T10:16:01.211Z,15348.00
2019-03-19T10:17:01.196Z,14888.00
2019-03-19T10:18:01.196Z,14144.00
2019-03-19T10:19:01.193Z,14148.00
2019-03-19T10:20:01.156Z,14644.00
2019-03-19T10:21:01.152Z,15132.00
2019-03-19T10:22:01.150Z,15752.00
2019-03-19T10:23:01.123Z,16864.00
2019-03-19T10:24:01.135Z,16608.00
2019-03-19T10:25:01.102Z,15716.00
2019-03-19T10:26:01.091Z,14756.00
2019-03-19T10:27:01.092Z,14272.00
2019-03-19T10:28:01.086Z,13440.00
2019-03-19T10:29:01.092Z,12604.00
2019-03-19T10:30:01.057Z,12372.00
2019-03-19T10:31:01.041Z,11848.00
2019-03-19T10:32:01.029Z,11572.00
2019-03-19T10:33:01.017Z,11252.00
2019-03-19T10:34:01.076Z,10952.00
2019-03-19T10:35:01.016Z,10976.00
2019-03-19T10:36:01.027Z,10720.00
2019-03-19T10:37:00.983Z,9996.00
2019-03-19T10:38:00.965Z,9468.00
2019-03-19T10:39:00.963Z,10012.00
2019-03-19T10:40:00.968Z,11400.00
2019-03-19T10:41:00.934Z,14236.00
2019-03-19T10:42:00.931Z,18880.00
2019-03-19T10:43:00.913Z,63360.00
2019-03-19T10:44:00.898Z,66464.00
2019-03-19T10:45:00.961Z,28160.00
2019-03-19T10:46:00.880Z,28128.00
2019-03-19T10:47:00.864Z,26400.00
2019-03-19T10:48:00.854Z,30592.00
2019-03-19T10:49:00.843Z,30144.00
2019-03-19T10:50:00.877Z,18176.00
2019-03-19T10:51:00.824Z,15508.00
2019-03-19T10:52:00.818Z,15392.00
2019-03-19T10:53:00.837Z,16120.00
2019-03-19T10:54:00.804Z,17600.00
2019-03-19T10:55:00.792Z,13996.00
2019-03-19T10:56:00.772Z,13516.00
2019-03-19T10:57:00.767Z,15532.00
2019-03-19T10:58:10.585Z,17984.00
2019-03-19T10:59:01.740Z,27872.00
2019-03-19T11:00:00.764Z,21728.00
2019-03-19T11:01:00.712Z,21952.00
2019-03-19T11:02:00.760Z,22656.00
2019-03-19T11:03:00.698Z,23872.00
2019-03-19T11:04:00.682Z,24736.00
2019-03-19T11:05:00.684Z,23744.00
2019-03-19T11:06:00.676Z,23904.00
2019-03-19T11:07:00.656Z,26912.00
2019-03-19T11:08:00.640Z,23968.00
2019-03-19T11:09:00.628Z,25024.00
2019-03-19T11:10:00.617Z,32640.00
2019-03-19T11:11:00.647Z,35136.00
2019-03-19T11:12:00.674Z,37984.00
2019-03-19T11:13:00.598Z,35808.00
2019-03-19T11:14:00.653Z,32128.00
2019-03-19T11:15:00.585Z,36704.00
2019-03-19T11:16:00.570Z,36000.00
2019-03-19T11:17:00.567Z,30176.00
2019-03-19T11:18:00.547Z,36320.00
2019-03-19T11:19:00.530Z,32960.00
2019-03-19T11:20:00.514Z,26272.00
2019-03-19T11:21:00.524Z,30976.00
2019-03-19T11:22:00.496Z,39008.00
2019-03-19T11:23:00.492Z,20640.00
2019-03-19T11:24:00.483Z,16544.00
2019-03-19T11:25:00.515Z,18848.00
2019-03-19T11:26:00.473Z,16192.00
2019-03-19T11:27:00.439Z,13496.00
2019-03-19T11:28:00.425Z,13400.00
2019-03-19T11:29:00.419Z,14328.00
2019-03-19T11:30:00.538Z,16160.00
2019-03-19T11:31:00.490Z,14604.00
2019-03-19T11:32:00.398Z,14256.00
2019-03-19T11:33:00.394Z,13448.00
2019-03-19T11:34:00.373Z,13712.00
2019-03-19T11:35:00.470Z,51392.00
2019-03-19T11:36:00.407Z,15224.00
2019-03-19T11:37:00.325Z,17216.00
2019-03-19T11:38:00.328Z,91712.00
2019-03-19T11:39:00.319Z,95520.00
2019-03-19T11:40:00.363Z,92960.00
2019-03-19T11:41:00.294Z,25632.00
2019-03-19T11:42:00.285Z,26272.00
2019-03-19T11:43:00.263Z,20864.00
2019-03-19T11:44:00.255Z,25632.00
2019-03-19T11:45:00.239Z,24224.00
2019-03-19T11:46:00.235Z,28384.00
2019-03-19T11:47:00.235Z,21632.00
2019-03-19T11:48:00.211Z,49504.00
2019-03-19T11:49:00.198Z,80800.00
2019-03-19T11:50:00.391Z,89376.00
2019-03-19T11:51:00.177Z,75456.00
2019-03-19T11:52:00.179Z,82944.00
2019-03-19T11:53:00.158Z,90624.00
2019-03-19T11:54:00.145Z,84768.00
2019-03-19T11:55:00.271Z,72704.00
2019-03-19T11:56:00.134Z,27520.00
2019-03-19T11:57:00.154Z,20608.00
2019-03-19T11:58:00.100Z,48352.00
2019-03-19T11:59:00.090Z,14192.00
2019-03-19T12:00:10.533Z,12616.00
2019-03-19T12:01:01.071Z,11984.00
2019-03-19T12:02:00.089Z,11596.00
2019-03-19T12:03:10.863Z,12048.00
2019-03-19T12:04:01.041Z,13320.00
2019-03-19T12:05:00.038Z,15220.00
2019-03-19T12:06:00.028Z,14056.00
2019-03-19T12:07:00.016Z,14360.00
2019-03-19T12:08:00.006Z,14400.00
2019-03-19T12:08:59.995Z,14156.00
2019-03-19T12:09:59.983Z,13916.00
2019-03-19T12:11:00.011Z,14360.00
2019-03-19T12:11:59.998Z,14348.00
2019-03-19T12:12:59.936Z,14088.00
2019-03-19T12:13:59.940Z,13708.00
2019-03-19T12:14:59.943Z,13196.00
2019-03-19T12:15:59.916Z,13644.00
2019-03-19T12:16:59.898Z,14892.00
2019-03-19T12:17:59.931Z,15636.00
2019-03-19T12:18:59.882Z,15364.00
2019-03-19T12:19:59.861Z,16548.00
2019-03-19T12:20:59.852Z,19328.00
2019-03-19T12:21:59.855Z,22816.00
2019-03-19T12:22:59.911Z,26496.00
2019-03-19T12:23:59.828Z,23584.00